sensor_id;sensor_type;location;lat;lon;timestamp;P1;durP1;ratioP1;P2;durP2;ratioP2
11665;SDS011;5889;51.350;6.708;2023-07-13T00:00:40;5.60;;;1.60;;
11665;SDS011;5889;51.350;6.708;2023-07-13T00:03:08;4.88;;;1.85;;
11665;SDS011;5889;51.350;6.708;2023-07-13T00:05:40;2.92;;;1.42;;
11665;SDS011;5889;51.350;6.708;2023-07-13T00:08:07;5.72;;;1.70;;
11665;SDS011;5889;51.350;6.708;2023-07-13T00:10:38;3.53;;;1.75;;
11665;SDS011;5889;51.350;6.708;2023-07-13T00:13:05;6.82;;;1.83;;
11665;SDS011;5889;51.350;6.708;2023-07-13T00:15:33;5.80;;;2.20;;
11665;SDS011;5889;51.350;6.708;2023-07-13T00:18:00;8.32;;;2.20;;
11665;SDS011;5889;51.350;6.708;2023-07-13T00:20:27;8.75;;;1.88;;
11665;SDS011;5889;51.350;6.708;2023-07-13T00:22:56;6.50;;;1.80;;
11665;SDS011;5889;51.350;6.708;2023-07-13T00:25:23;6.85;;;1.83;;
11665;SDS011;5889;51.350;6.708;2023-07-13T00:27:53;5.18;;;1.55;;
11665;SDS011;5889;51.350;6.708;2023-07-13T00:30:21;2.58;;;1.50;;
11665;SDS011;5889;51.350;6.708;2023-07-13T00:32:48;4.85;;;1.50;;
11665;SDS011;5889;51.350;6.708;2023-07-13T00:35:16;4.50;;;1.30;;
11665;SDS011;5889;51.350;6.708;2023-07-13T00:37:43;6.30;;;2.20;;
11665;SDS011;5889;51.350;6.708;2023-07-13T00:40:11;5.60;;;2.08;;
11665;SDS011;5889;51.350;6.708;2023-07-13T00:42:39;10.65;;;2.28;;
11665;SDS011;5889;51.350;6.708;2023-07-13T00:46:07;5.13;;;1.48;;
11665;SDS011;5889;51.350;6.708;2023-07-13T00:48:15;5.85;;;1.90;;
11665;SDS011;5889;51.350;6.708;2023-07-13T00:50:44;3.72;;;1.40;;
11665;SDS011;5889;51.350;6.708;2023-07-13T00:53:14;6.40;;;1.65;;
11665;SDS011;5889;51.350;6.708;2023-07-13T00:55:41;6.53;;;2.00;;
11665;SDS011;5889;51.350;6.708;2023-07-13T00:58:08;4.03;;;1.55;;
11665;SDS011;5889;51.350;6.708;2023-07-13T01:00:36;5.55;;;1.90;;
11665;SDS011;5889;51.350;6.708;2023-07-13T01:03:05;3.80;;;1.83;;
11665;SDS011;5889;51.350;6.708;2023-07-13T01:05:33;5.05;;;1.90;;
11665;SDS011;5889;51.350;6.708;2023-07-13T01:08:01;6.38;;;1.50;;
11665;SDS011;5889;51.350;6.708;2023-07-13T01:10:30;5.05;;;1.40;;
11665;SDS011;5889;51.350;6.708;2023-07-13T01:13:04;5.78;;;1.60;;
11665;SDS011;5889;51.350;6.708;2023-07-13T01:15:33;4.53;;;1.17;;
11665;SDS011;5889;51.350;6.708;2023-07-13T01:18:02;7.53;;;1.60;;
11665;SDS011;5889;51.350;6.708;2023-07-13T01:20:29;9.00;;;1.60;;
11665;SDS011;5889;51.350;6.708;2023-07-13T01:23:02;4.70;;;1.45;;
11665;SDS011;5889;51.350;6.708;2023-07-13T01:25:30;6.13;;;1.67;;
11665;SDS011;5889;51.350;6.708;2023-07-13T01:27:57;4.30;;;1.45;;
11665;SDS011;5889;51.350;6.708;2023-07-13T01:30:24;3.63;;;1.38;;
11665;SDS011;5889;51.350;6.708;2023-07-13T01:32:51;4.57;;;1.50;;
11665;SDS011;5889;51.350;6.708;2023-07-13T01:35:18;6.33;;;1.67;;
11665;SDS011;5889;51.350;6.708;2023-07-13T01:37:45;5.75;;;1.65;;
11665;SDS011;5889;51.350;6.708;2023-07-13T01:40:13;6.53;;;1.63;;
11665;SDS011;5889;51.350;6.708;2023-07-13T01:42:40;4.97;;;1.70;;
11665;SDS011;5889;51.350;6.708;2023-07-13T01:45:07;5.28;;;1.70;;
11665;SDS011;5889;51.350;6.708;2023-07-13T01:47:35;7.28;;;1.73;;
11665;SDS011;5889;51.350;6.708;2023-07-13T01:50:02;4.30;;;1.50;;
11665;SDS011;5889;51.350;6.708;2023-07-13T01:52:29;5.07;;;1.63;;
11665;SDS011;5889;51.350;6.708;2023-07-13T01:54:56;4.68;;;1.88;;
11665;SDS011;5889;51.350;6.708;2023-07-13T01:57:24;5.07;;;1.67;;
11665;SDS011;5889;51.350;6.708;2023-07-13T01:59:50;3.60;;;1.58;;
11665;SDS011;5889;51.350;6.708;2023-07-13T02:02:17;6.25;;;1.65;;
11665;SDS011;5889;51.350;6.708;2023-07-13T02:04:44;6.23;;;2.00;;
11665;SDS011;5889;51.350;6.708;2023-07-13T02:07:11;7.78;;;1.92;;
11665;SDS011;5889;51.350;6.708;2023-07-13T02:09:40;6.40;;;1.70;;
11665;SDS011;5889;51.350;6.708;2023-07-13T02:12:07;5.10;;;1.70;;
11665;SDS011;5889;51.350;6.708;2023-07-13T02:14:36;5.97;;;1.70;;
11665;SDS011;5889;51.350;6.708;2023-07-13T02:17:03;4.80;;;2.00;;
11665;SDS011;5889;51.350;6.708;2023-07-13T02:19:30;4.00;;;1.50;;
11665;SDS011;5889;51.350;6.708;2023-07-13T02:21:57;7.43;;;1.70;;
11665;SDS011;5889;51.350;6.708;2023-07-13T02:24:24;6.70;;;1.70;;
11665;SDS011;5889;51.350;6.708;2023-07-13T02:26:52;5.83;;;1.60;;
11665;SDS011;5889;51.350;6.708;2023-07-13T02:29:19;6.50;;;1.90;;
11665;SDS011;5889;51.350;6.708;2023-07-13T02:31:47;5.27;;;1.90;;
11665;SDS011;5889;51.350;6.708;2023-07-13T02:34:14;5.43;;;1.75;;
11665;SDS011;5889;51.350;6.708;2023-07-13T02:36:41;5.37;;;2.30;;
11665;SDS011;5889;51.350;6.708;2023-07-13T02:39:08;5.67;;;1.73;;
11665;SDS011;5889;51.350;6.708;2023-07-13T02:41:36;5.37;;;1.73;;
11665;SDS011;5889;51.350;6.708;2023-07-13T02:44:03;5.33;;;1.97;;
11665;SDS011;5889;51.350;6.708;2023-07-13T02:46:31;6.73;;;2.03;;
11665;SDS011;5889;51.350;6.708;2023-07-13T02:49:00;3.80;;;1.60;;
11665;SDS011;5889;51.350;6.708;2023-07-13T02:51:27;5.67;;;1.77;;
11665;SDS011;5889;51.350;6.708;2023-07-13T02:53:54;4.00;;;1.70;;
11665;SDS011;5889;51.350;6.708;2023-07-13T02:56:22;4.97;;;1.87;;
11665;SDS011;5889;51.350;6.708;2023-07-13T02:58:52;8.43;;;1.67;;
11665;SDS011;5889;51.350;6.708;2023-07-13T03:01:19;9.13;;;2.13;;
11665;SDS011;5889;51.350;6.708;2023-07-13T03:03:47;5.63;;;1.60;;
11665;SDS011;5889;51.350;6.708;2023-07-13T03:06:16;3.93;;;1.60;;
11665;SDS011;5889;51.350;6.708;2023-07-13T03:08:43;6.33;;;2.00;;
11665;SDS011;5889;51.350;6.708;2023-07-13T03:11:11;6.67;;;1.93;;
11665;SDS011;5889;51.350;6.708;2023-07-13T03:13:40;5.70;;;2.20;;
11665;SDS011;5889;51.350;6.708;2023-07-13T03:16:08;5.20;;;1.80;;
11665;SDS011;5889;51.350;6.708;2023-07-13T03:18:36;4.00;;;1.70;;
11665;SDS011;5889;51.350;6.708;2023-07-13T03:21:04;6.37;;;1.90;;
11665;SDS011;5889;51.350;6.708;2023-07-13T03:23:33;4.63;;;1.97;;
11665;SDS011;5889;51.350;6.708;2023-07-13T03:26:01;7.60;;;1.90;;
11665;SDS011;5889;51.350;6.708;2023-07-13T03:28:29;3.73;;;1.60;;
11665;SDS011;5889;51.350;6.708;2023-07-13T03:30:59;5.87;;;2.10;;
11665;SDS011;5889;51.350;6.708;2023-07-13T03:33:28;7.10;;;1.90;;
11665;SDS011;5889;51.350;6.708;2023-07-13T03:35:55;4.97;;;1.80;;
11665;SDS011;5889;51.350;6.708;2023-07-13T03:38:22;5.27;;;2.10;;
11665;SDS011;5889;51.350;6.708;2023-07-13T03:40:50;4.47;;;1.63;;
11665;SDS011;5889;51.350;6.708;2023-07-13T03:43:17;4.93;;;2.10;;
11665;SDS011;5889;51.350;6.708;2023-07-13T03:45:45;6.07;;;1.93;;
11665;SDS011;5889;51.350;6.708;2023-07-13T03:48:12;7.93;;;2.10;;
11665;SDS011;5889;51.350;6.708;2023-07-13T03:50:40;6.67;;;1.93;;
11665;SDS011;5889;51.350;6.708;2023-07-13T03:53:07;2.87;;;1.40;;
11665;SDS011;5889;51.350;6.708;2023-07-13T03:55:34;9.00;;;2.07;;
11665;SDS011;5889;51.350;6.708;2023-07-13T04:00:53;5.00;;;2.17;;
11665;SDS011;5889;51.350;6.708;2023-07-13T04:03:20;9.93;;;1.80;;
11665;SDS011;5889;51.350;6.708;2023-07-13T04:05:47;5.83;;;1.87;;
11665;SDS011;5889;51.350;6.708;2023-07-13T04:08:14;7.67;;;2.17;;
11665;SDS011;5889;51.350;6.708;2023-07-13T04:10:42;5.50;;;2.07;;
11665;SDS011;5889;51.350;6.708;2023-07-13T04:13:09;7.43;;;1.97;;
11665;SDS011;5889;51.350;6.708;2023-07-13T04:15:38;6.70;;;2.00;;
11665;SDS011;5889;51.350;6.708;2023-07-13T04:18:06;8.57;;;2.60;;
11665;SDS011;5889;51.350;6.708;2023-07-13T04:20:33;5.90;;;1.93;;
11665;SDS011;5889;51.350;6.708;2023-07-13T04:23:00;5.03;;;1.90;;
11665;SDS011;5889;51.350;6.708;2023-07-13T04:25:26;5.30;;;1.73;;
11665;SDS011;5889;51.350;6.708;2023-07-13T04:27:54;5.00;;;2.00;;
11665;SDS011;5889;51.350;6.708;2023-07-13T04:30:21;9.27;;;2.77;;
11665;SDS011;5889;51.350;6.708;2023-07-13T04:32:50;7.40;;;1.87;;
11665;SDS011;5889;51.350;6.708;2023-07-13T04:35:18;7.67;;;2.10;;
11665;SDS011;5889;51.350;6.708;2023-07-13T04:37:47;8.97;;;2.37;;
11665;SDS011;5889;51.350;6.708;2023-07-13T04:40:15;7.10;;;1.93;;
11665;SDS011;5889;51.350;6.708;2023-07-13T04:42:43;11.83;;;2.27;;
11665;SDS011;5889;51.350;6.708;2023-07-13T04:45:10;5.90;;;2.37;;
11665;SDS011;5889;51.350;6.708;2023-07-13T04:47:37;9.57;;;1.83;;
11665;SDS011;5889;51.350;6.708;2023-07-13T04:50:06;7.40;;;2.23;;
11665;SDS011;5889;51.350;6.708;2023-07-13T04:52:34;9.23;;;2.37;;
11665;SDS011;5889;51.350;6.708;2023-07-13T04:55:01;8.63;;;2.57;;
11665;SDS011;5889;51.350;6.708;2023-07-13T04:57:28;7.93;;;2.07;;
11665;SDS011;5889;51.350;6.708;2023-07-13T04:59:55;10.73;;;2.07;;
11665;SDS011;5889;51.350;6.708;2023-07-13T05:02:21;6.63;;;2.00;;
11665;SDS011;5889;51.350;6.708;2023-07-13T05:04:48;10.03;;;2.03;;
11665;SDS011;5889;51.350;6.708;2023-07-13T05:07:17;7.40;;;2.27;;
11665;SDS011;5889;51.350;6.708;2023-07-13T05:09:44;6.32;;;2.45;;
11665;SDS011;5889;51.350;6.708;2023-07-13T05:12:10;10.00;;;2.20;;
11665;SDS011;5889;51.350;6.708;2023-07-13T05:14:37;10.00;;;2.42;;
11665;SDS011;5889;51.350;6.708;2023-07-13T05:17:04;10.73;;;2.20;;
11665;SDS011;5889;51.350;6.708;2023-07-13T05:19:31;5.40;;;2.03;;
11665;SDS011;5889;51.350;6.708;2023-07-13T05:21:58;7.63;;;1.97;;
11665;SDS011;5889;51.350;6.708;2023-07-13T05:24:27;8.68;;;2.42;;
11665;SDS011;5889;51.350;6.708;2023-07-13T05:26:54;5.30;;;2.22;;
11665;SDS011;5889;51.350;6.708;2023-07-13T05:29:21;13.10;;;3.03;;
11665;SDS011;5889;51.350;6.708;2023-07-13T05:31:49;6.85;;;2.67;;
11665;SDS011;5889;51.350;6.708;2023-07-13T05:34:16;14.10;;;2.80;;
11665;SDS011;5889;51.350;6.708;2023-07-13T05:36:43;7.25;;;2.63;;
11665;SDS011;5889;51.350;6.708;2023-07-13T05:39:10;8.77;;;2.83;;
11665;SDS011;5889;51.350;6.708;2023-07-13T05:41:39;7.57;;;2.72;;
11665;SDS011;5889;51.350;6.708;2023-07-13T05:44:06;6.63;;;2.97;;
11665;SDS011;5889;51.350;6.708;2023-07-13T05:46:33;6.90;;;2.67;;
11665;SDS011;5889;51.350;6.708;2023-07-13T05:49:00;7.13;;;2.73;;
11665;SDS011;5889;51.350;6.708;2023-07-13T05:51:28;6.60;;;2.30;;
11665;SDS011;5889;51.350;6.708;2023-07-13T05:53:55;9.30;;;2.55;;
11665;SDS011;5889;51.350;6.708;2023-07-13T05:56:22;4.45;;;2.33;;
11665;SDS011;5889;51.350;6.708;2023-07-13T05:58:51;9.10;;;3.03;;
11665;SDS011;5889;51.350;6.708;2023-07-13T06:01:18;8.68;;;2.45;;
11665;SDS011;5889;51.350;6.708;2023-07-13T06:03:46;8.07;;;2.72;;
11665;SDS011;5889;51.350;6.708;2023-07-13T06:06:13;10.98;;;2.72;;
11665;SDS011;5889;51.350;6.708;2023-07-13T06:08:43;8.60;;;3.00;;
11665;SDS011;5889;51.350;6.708;2023-07-13T06:11:12;7.50;;;2.42;;
11665;SDS011;5889;51.350;6.708;2023-07-13T06:13:41;8.85;;;2.58;;
11665;SDS011;5889;51.350;6.708;2023-07-13T06:16:09;9.88;;;3.17;;
11665;SDS011;5889;51.350;6.708;2023-07-13T06:18:37;6.50;;;2.88;;
11665;SDS011;5889;51.350;6.708;2023-07-13T06:21:05;9.70;;;3.90;;
11665;SDS011;5889;51.350;6.708;2023-07-13T06:23:33;11.02;;;3.55;;
11665;SDS011;5889;51.350;6.708;2023-07-13T06:26:00;12.25;;;3.10;;
11665;SDS011;5889;51.350;6.708;2023-07-13T06:28:28;10.20;;;2.88;;
11665;SDS011;5889;51.350;6.708;2023-07-13T06:30:55;7.40;;;3.10;;
11665;SDS011;5889;51.350;6.708;2023-07-13T06:33:23;12.40;;;3.78;;
11665;SDS011;5889;51.350;6.708;2023-07-13T06:35:50;8.10;;;3.20;;
11665;SDS011;5889;51.350;6.708;2023-07-13T06:38:18;10.93;;;3.72;;
11665;SDS011;5889;51.350;6.708;2023-07-13T06:40:45;11.90;;;3.40;;
11665;SDS011;5889;51.350;6.708;2023-07-13T06:43:12;8.50;;;3.65;;
11665;SDS011;5889;51.350;6.708;2023-07-13T06:45:40;8.75;;;3.35;;
11665;SDS011;5889;51.350;6.708;2023-07-13T06:48:08;12.05;;;3.38;;
11665;SDS011;5889;51.350;6.708;2023-07-13T06:50:37;13.35;;;3.33;;
11665;SDS011;5889;51.350;6.708;2023-07-13T06:53:03;11.10;;;3.67;;
11665;SDS011;5889;51.350;6.708;2023-07-13T06:55:30;9.80;;;4.00;;
11665;SDS011;5889;51.350;6.708;2023-07-13T06:57:57;9.35;;;3.72;;
11665;SDS011;5889;51.350;6.708;2023-07-13T07:00:25;10.15;;;3.90;;
11665;SDS011;5889;51.350;6.708;2023-07-13T07:02:52;9.10;;;3.10;;
11665;SDS011;5889;51.350;6.708;2023-07-13T07:05:18;11.82;;;3.78;;
11665;SDS011;5889;51.350;6.708;2023-07-13T07:07:49;11.85;;;3.80;;
11665;SDS011;5889;51.350;6.708;2023-07-13T07:10:17;11.65;;;3.85;;
11665;SDS011;5889;51.350;6.708;2023-07-13T07:12:44;11.85;;;4.57;;
11665;SDS011;5889;51.350;6.708;2023-07-13T07:15:11;12.82;;;3.85;;
11665;SDS011;5889;51.350;6.708;2023-07-13T07:17:38;10.07;;;4.10;;
11665;SDS011;5889;51.350;6.708;2023-07-13T07:20:05;13.63;;;4.70;;
11665;SDS011;5889;51.350;6.708;2023-07-13T07:22:33;14.35;;;4.43;;
11665;SDS011;5889;51.350;6.708;2023-07-13T07:25:01;12.68;;;4.57;;
11665;SDS011;5889;51.350;6.708;2023-07-13T07:27:28;12.82;;;4.55;;
11665;SDS011;5889;51.350;6.708;2023-07-13T07:29:55;8.27;;;3.53;;
11665;SDS011;5889;51.350;6.708;2023-07-13T07:32:29;10.85;;;3.75;;
11665;SDS011;5889;51.350;6.708;2023-07-13T07:34:57;13.32;;;4.38;;
11665;SDS011;5889;51.350;6.708;2023-07-13T07:37:24;11.55;;;3.65;;
11665;SDS011;5889;51.350;6.708;2023-07-13T07:39:51;12.27;;;3.72;;
11665;SDS011;5889;51.350;6.708;2023-07-13T07:42:20;12.85;;;4.00;;
11665;SDS011;5889;51.350;6.708;2023-07-13T07:44:47;11.65;;;3.95;;
11665;SDS011;5889;51.350;6.708;2023-07-13T07:47:14;11.63;;;4.75;;
11665;SDS011;5889;51.350;6.708;2023-07-13T07:49:41;11.13;;;4.13;;
11665;SDS011;5889;51.350;6.708;2023-07-13T07:52:08;12.85;;;4.07;;
11665;SDS011;5889;51.350;6.708;2023-07-13T07:54:35;10.05;;;3.90;;
11665;SDS011;5889;51.350;6.708;2023-07-13T07:57:02;6.78;;;3.38;;
11665;SDS011;5889;51.350;6.708;2023-07-13T07:59:31;9.50;;;3.33;;
11665;SDS011;5889;51.350;6.708;2023-07-13T08:01:58;14.38;;;4.18;;
11665;SDS011;5889;51.350;6.708;2023-07-13T08:04:27;12.60;;;3.80;;
11665;SDS011;5889;51.350;6.708;2023-07-13T08:06:54;9.32;;;3.78;;
11665;SDS011;5889;51.350;6.708;2023-07-13T08:09:22;11.73;;;3.92;;
11665;SDS011;5889;51.350;6.708;2023-07-13T08:11:49;10.25;;;3.50;;
11665;SDS011;5889;51.350;6.708;2023-07-13T08:14:17;9.52;;;2.75;;
11665;SDS011;5889;51.350;6.708;2023-07-13T08:16:45;9.48;;;2.90;;
11665;SDS011;5889;51.350;6.708;2023-07-13T08:19:12;7.28;;;2.90;;
11665;SDS011;5889;51.350;6.708;2023-07-13T08:21:39;11.52;;;3.50;;
11665;SDS011;5889;51.350;6.708;2023-07-13T08:24:07;7.68;;;2.92;;
11665;SDS011;5889;51.350;6.708;2023-07-13T08:26:34;9.50;;;3.17;;
11665;SDS011;5889;51.350;6.708;2023-07-13T08:29:01;7.72;;;3.72;;
11665;SDS011;5889;51.350;6.708;2023-07-13T08:31:28;9.23;;;3.95;;
11665;SDS011;5889;51.350;6.708;2023-07-13T08:33:57;13.95;;;3.10;;
11665;SDS011;5889;51.350;6.708;2023-07-13T08:36:25;6.20;;;2.83;;
11665;SDS011;5889;51.350;6.708;2023-07-13T08:38:52;9.70;;;2.85;;
11665;SDS011;5889;51.350;6.708;2023-07-13T08:41:21;9.35;;;3.60;;
11665;SDS011;5889;51.350;6.708;2023-07-13T08:43:49;7.85;;;3.08;;
11665;SDS011;5889;51.350;6.708;2023-07-13T08:46:21;6.35;;;2.85;;
11665;SDS011;5889;51.350;6.708;2023-07-13T08:48:53;6.60;;;2.67;;
11665;SDS011;5889;51.350;6.708;2023-07-13T08:51:35;12.70;;;2.95;;
11665;SDS011;5889;51.350;6.708;2023-07-13T08:54:10;7.97;;;2.95;;
11665;SDS011;5889;51.350;6.708;2023-07-13T08:56:44;9.05;;;3.28;;
11665;SDS011;5889;51.350;6.708;2023-07-13T08:59:13;8.35;;;2.88;;
11665;SDS011;5889;51.350;6.708;2023-07-13T09:01:54;11.68;;;3.30;;
11665;SDS011;5889;51.350;6.708;2023-07-13T09:04:32;11.70;;;3.47;;
11665;SDS011;5889;51.350;6.708;2023-07-13T09:07:05;7.22;;;2.75;;
11665;SDS011;5889;51.350;6.708;2023-07-13T09:09:44;9.38;;;3.15;;
11665;SDS011;5889;51.350;6.708;2023-07-13T09:12:19;12.95;;;3.85;;
11665;SDS011;5889;51.350;6.708;2023-07-13T09:14:53;8.93;;;3.00;;
11665;SDS011;5889;51.350;6.708;2023-07-13T09:17:22;7.32;;;2.83;;
11665;SDS011;5889;51.350;6.708;2023-07-13T09:19:54;6.60;;;2.92;;
11665;SDS011;5889;51.350;6.708;2023-07-13T09:22:27;7.63;;;2.92;;
11665;SDS011;5889;51.350;6.708;2023-07-13T09:25:00;9.23;;;2.88;;
11665;SDS011;5889;51.350;6.708;2023-07-13T09:27:32;6.35;;;3.17;;
11665;SDS011;5889;51.350;6.708;2023-07-13T09:30:07;9.43;;;3.25;;
11665;SDS011;5889;51.350;6.708;2023-07-13T09:32:50;10.05;;;3.33;;
11665;SDS011;5889;51.350;6.708;2023-07-13T09:35:19;7.05;;;3.70;;
11665;SDS011;5889;51.350;6.708;2023-07-13T09:37:49;9.73;;;3.15;;
11665;SDS011;5889;51.350;6.708;2023-07-13T09:40:25;8.77;;;3.17;;
11665;SDS011;5889;51.350;6.708;2023-07-13T09:43:04;10.13;;;3.28;;
11665;SDS011;5889;51.350;6.708;2023-07-13T09:45:36;9.40;;;3.72;;
11665;SDS011;5889;51.350;6.708;2023-07-13T09:48:04;8.65;;;2.90;;
11665;SDS011;5889;51.350;6.708;2023-07-13T09:50:33;7.43;;;2.67;;
11665;SDS011;5889;51.350;6.708;2023-07-13T09:53:02;11.30;;;3.05;;
11665;SDS011;5889;51.350;6.708;2023-07-13T09:55:30;13.00;;;3.22;;
11665;SDS011;5889;51.350;6.708;2023-07-13T09:58:02;9.75;;;2.92;;
11665;SDS011;5889;51.350;6.708;2023-07-13T10:00:31;10.45;;;3.10;;
11665;SDS011;5889;51.350;6.708;2023-07-13T10:03:02;8.30;;;2.55;;
11665;SDS011;5889;51.350;6.708;2023-07-13T10:05:40;8.05;;;3.08;;
11665;SDS011;5889;51.350;6.708;2023-07-13T10:08:20;9.40;;;2.67;;
11665;SDS011;5889;51.350;6.708;2023-07-13T10:10:53;9.80;;;3.03;;
11665;SDS011;5889;51.350;6.708;2023-07-13T10:13:28;7.70;;;2.70;;
11665;SDS011;5889;51.350;6.708;2023-07-13T10:15:59;5.47;;;2.58;;
11665;SDS011;5889;51.350;6.708;2023-07-13T10:18:26;5.15;;;2.28;;
11665;SDS011;5889;51.350;6.708;2023-07-13T10:20:58;6.63;;;2.40;;
11665;SDS011;5889;51.350;6.708;2023-07-13T10:23:37;11.15;;;2.90;;
11665;SDS011;5889;51.350;6.708;2023-07-13T10:26:09;5.78;;;2.67;;
11665;SDS011;5889;51.350;6.708;2023-07-13T10:28:41;8.02;;;2.83;;
11665;SDS011;5889;51.350;6.708;2023-07-13T10:31:13;7.32;;;2.38;;
11665;SDS011;5889;51.350;6.708;2023-07-13T10:33:42;6.88;;;2.53;;
11665;SDS011;5889;51.350;6.708;2023-07-13T10:36:13;9.20;;;2.65;;
11665;SDS011;5889;51.350;6.708;2023-07-13T10:38:45;7.93;;;2.70;;
11665;SDS011;5889;51.350;6.708;2023-07-13T10:41:16;10.50;;;2.97;;
11665;SDS011;5889;51.350;6.708;2023-07-13T10:43:46;5.72;;;2.13;;
11665;SDS011;5889;51.350;6.708;2023-07-13T10:46:17;5.97;;;2.50;;
11665;SDS011;5889;51.350;6.708;2023-07-13T10:48:48;10.30;;;2.75;;
11665;SDS011;5889;51.350;6.708;2023-07-13T10:51:19;6.72;;;2.78;;
11665;SDS011;5889;51.350;6.708;2023-07-13T10:53:48;7.78;;;2.92;;
11665;SDS011;5889;51.350;6.708;2023-07-13T10:56:42;7.53;;;2.65;;
11665;SDS011;5889;51.350;6.708;2023-07-13T10:59:11;5.95;;;3.05;;
11665;SDS011;5889;51.350;6.708;2023-07-13T11:01:52;4.57;;;2.20;;
11665;SDS011;5889;51.350;6.708;2023-07-13T11:04:22;13.20;;;3.40;;
11665;SDS011;5889;51.350;6.708;2023-07-13T11:06:52;7.35;;;2.50;;
11665;SDS011;5889;51.350;6.708;2023-07-13T11:09:34;5.55;;;2.50;;
11665;SDS011;5889;51.350;6.708;2023-07-13T11:12:07;8.55;;;2.00;;
11665;SDS011;5889;51.350;6.708;2023-07-13T11:15:00;7.25;;;2.10;;
11665;SDS011;5889;51.350;6.708;2023-07-13T11:17:46;6.95;;;2.42;;
11665;SDS011;5889;51.350;6.708;2023-07-13T11:20:22;3.42;;;2.00;;
11665;SDS011;5889;51.350;6.708;2023-07-13T11:25:57;6.80;;;2.25;;
11665;SDS011;5889;51.350;6.708;2023-07-13T11:28:26;7.28;;;2.55;;
11665;SDS011;5889;51.350;6.708;2023-07-13T11:31:00;4.85;;;2.13;;
11665;SDS011;5889;51.350;6.708;2023-07-13T11:33:31;4.57;;;2.10;;
11665;SDS011;5889;51.350;6.708;2023-07-13T11:36:21;5.20;;;2.40;;
11665;SDS011;5889;51.350;6.708;2023-07-13T11:38:54;3.95;;;1.90;;
11665;SDS011;5889;51.350;6.708;2023-07-13T11:41:28;8.48;;;2.00;;
11665;SDS011;5889;51.350;6.708;2023-07-13T11:44:01;3.85;;;1.90;;
11665;SDS011;5889;51.350;6.708;2023-07-13T11:46:34;3.42;;;1.70;;
11665;SDS011;5889;51.350;6.708;2023-07-13T11:49:01;3.00;;;1.77;;
11665;SDS011;5889;51.350;6.708;2023-07-13T11:51:31;3.70;;;1.80;;
11665;SDS011;5889;51.350;6.708;2023-07-13T11:54:03;4.78;;;1.90;;
11665;SDS011;5889;51.350;6.708;2023-07-13T11:56:33;4.72;;;1.70;;
11665;SDS011;5889;51.350;6.708;2023-07-13T11:59:04;6.25;;;2.03;;
11665;SDS011;5889;51.350;6.708;2023-07-13T12:01:33;5.28;;;2.30;;
11665;SDS011;5889;51.350;6.708;2023-07-13T12:04:03;3.97;;;1.70;;
11665;SDS011;5889;51.350;6.708;2023-07-13T12:06:32;4.53;;;2.10;;
11665;SDS011;5889;51.350;6.708;2023-07-13T12:09:03;5.32;;;2.10;;
11665;SDS011;5889;51.350;6.708;2023-07-13T12:11:41;3.35;;;1.60;;
11665;SDS011;5889;51.350;6.708;2023-07-13T12:14:13;4.05;;;1.83;;
11665;SDS011;5889;51.350;6.708;2023-07-13T12:16:41;5.53;;;2.00;;
11665;SDS011;5889;51.350;6.708;2023-07-13T12:19:14;4.38;;;1.95;;
11665;SDS011;5889;51.350;6.708;2023-07-13T12:21:44;4.88;;;1.65;;
11665;SDS011;5889;51.350;6.708;2023-07-13T12:24:14;3.38;;;1.45;;
11665;SDS011;5889;51.350;6.708;2023-07-13T12:26:43;4.38;;;1.63;;
11665;SDS011;5889;51.350;6.708;2023-07-13T12:29:16;2.83;;;1.40;;
11665;SDS011;5889;51.350;6.708;2023-07-13T12:31:45;3.67;;;1.40;;
11665;SDS011;5889;51.350;6.708;2023-07-13T12:34:13;3.78;;;1.52;;
11665;SDS011;5889;51.350;6.708;2023-07-13T12:36:45;4.43;;;1.50;;
11665;SDS011;5889;51.350;6.708;2023-07-13T12:39:15;6.63;;;1.73;;
11665;SDS011;5889;51.350;6.708;2023-07-13T12:41:46;7.63;;;2.53;;
11665;SDS011;5889;51.350;6.708;2023-07-13T12:44:14;4.65;;;1.80;;
11665;SDS011;5889;51.350;6.708;2023-07-13T12:46:53;7.30;;;1.80;;
11665;SDS011;5889;51.350;6.708;2023-07-13T12:49:27;6.18;;;1.98;;
11665;SDS011;5889;51.350;6.708;2023-07-13T12:51:59;6.53;;;2.10;;
11665;SDS011;5889;51.350;6.708;2023-07-13T12:54:31;5.75;;;1.80;;
11665;SDS011;5889;51.350;6.708;2023-07-13T12:56:59;9.10;;;2.00;;
11665;SDS011;5889;51.350;6.708;2023-07-13T12:59:29;6.25;;;1.90;;
11665;SDS011;5889;51.350;6.708;2023-07-13T13:02:01;5.10;;;2.10;;
11665;SDS011;5889;51.350;6.708;2023-07-13T13:04:31;3.22;;;1.70;;
11665;SDS011;5889;51.350;6.708;2023-07-13T13:07:02;2.75;;;1.52;;
11665;SDS011;5889;51.350;6.708;2023-07-13T13:09:30;4.43;;;1.60;;
11665;SDS011;5889;51.350;6.708;2023-07-13T13:11:57;2.22;;;1.50;;
11665;SDS011;5889;51.350;6.708;2023-07-13T13:14:26;4.63;;;2.03;;
11665;SDS011;5889;51.350;6.708;2023-07-13T13:16:52;6.47;;;1.77;;
11665;SDS011;5889;51.350;6.708;2023-07-13T13:19:21;4.85;;;1.77;;
11665;SDS011;5889;51.350;6.708;2023-07-13T13:21:50;3.28;;;1.60;;
11665;SDS011;5889;51.350;6.708;2023-07-13T13:24:20;3.58;;;1.52;;
11665;SDS011;5889;51.350;6.708;2023-07-13T13:26:48;4.75;;;1.80;;
11665;SDS011;5889;51.350;6.708;2023-07-13T13:29:17;3.83;;;1.83;;
11665;SDS011;5889;51.350;6.708;2023-07-13T13:31:46;4.80;;;1.77;;
11665;SDS011;5889;51.350;6.708;2023-07-13T13:34:14;7.93;;;2.35;;
11665;SDS011;5889;51.350;6.708;2023-07-13T13:36:42;3.25;;;1.50;;
11665;SDS011;5889;51.350;6.708;2023-07-13T13:39:16;4.88;;;2.15;;
11665;SDS011;5889;51.350;6.708;2023-07-13T13:41:48;5.57;;;1.80;;
11665;SDS011;5889;51.350;6.708;2023-07-13T13:44:15;5.43;;;2.25;;
11665;SDS011;5889;51.350;6.708;2023-07-13T13:46:45;4.32;;;2.20;;
11665;SDS011;5889;51.350;6.708;2023-07-13T13:49:19;3.85;;;1.50;;
11665;SDS011;5889;51.350;6.708;2023-07-13T13:51:48;6.45;;;1.73;;
11665;SDS011;5889;51.350;6.708;2023-07-13T13:54:16;3.70;;;1.60;;
11665;SDS011;5889;51.350;6.708;2023-07-13T13:56:46;6.97;;;1.83;;
11665;SDS011;5889;51.350;6.708;2023-07-13T13:59:13;3.03;;;1.90;;
11665;SDS011;5889;51.350;6.708;2023-07-13T14:01:42;6.10;;;1.63;;
11665;SDS011;5889;51.350;6.708;2023-07-13T14:04:11;3.63;;;1.70;;
11665;SDS011;5889;51.350;6.708;2023-07-13T14:06:42;4.28;;;1.77;;
11665;SDS011;5889;51.350;6.708;2023-07-13T14:09:10;3.25;;;1.80;;
11665;SDS011;5889;51.350;6.708;2023-07-13T14:11:38;4.57;;;1.58;;
11665;SDS011;5889;51.350;6.708;2023-07-13T14:14:08;4.70;;;1.70;;
11665;SDS011;5889;51.350;6.708;2023-07-13T14:16:39;4.85;;;2.10;;
11665;SDS011;5889;51.350;6.708;2023-07-13T14:19:09;4.47;;;1.90;;
11665;SDS011;5889;51.350;6.708;2023-07-13T14:21:37;4.68;;;1.50;;
11665;SDS011;5889;51.350;6.708;2023-07-13T14:24:04;3.95;;;1.90;;
11665;SDS011;5889;51.350;6.708;2023-07-13T14:26:32;4.20;;;1.60;;
11665;SDS011;5889;51.350;6.708;2023-07-13T14:29:04;3.42;;;1.70;;
11665;SDS011;5889;51.350;6.708;2023-07-13T14:31:37;2.20;;;1.58;;
11665;SDS011;5889;51.350;6.708;2023-07-13T14:34:04;4.57;;;1.95;;
11665;SDS011;5889;51.350;6.708;2023-07-13T14:36:33;4.97;;;1.60;;
11665;SDS011;5889;51.350;6.708;2023-07-13T14:39:05;3.88;;;1.75;;
11665;SDS011;5889;51.350;6.708;2023-07-13T14:41:38;3.67;;;1.65;;
11665;SDS011;5889;51.350;6.708;2023-07-13T14:44:08;4.95;;;1.92;;
11665;SDS011;5889;51.350;6.708;2023-07-13T14:46:38;4.15;;;1.70;;
11665;SDS011;5889;51.350;6.708;2023-07-13T14:49:05;3.17;;;1.60;;
11665;SDS011;5889;51.350;6.708;2023-07-13T14:51:39;4.35;;;1.98;;
11665;SDS011;5889;51.350;6.708;2023-07-13T14:54:08;9.68;;;2.28;;
11665;SDS011;5889;51.350;6.708;2023-07-13T14:56:36;4.78;;;1.90;;
11665;SDS011;5889;51.350;6.708;2023-07-13T14:59:03;4.25;;;2.25;;
11665;SDS011;5889;51.350;6.708;2023-07-13T15:01:32;5.45;;;2.00;;
11665;SDS011;5889;51.350;6.708;2023-07-13T15:04:00;5.35;;;1.95;;
11665;SDS011;5889;51.350;6.708;2023-07-13T15:06:29;5.43;;;2.00;;
11665;SDS011;5889;51.350;6.708;2023-07-13T15:08:57;6.75;;;2.08;;
11665;SDS011;5889;51.350;6.708;2023-07-13T15:11:24;6.65;;;2.58;;
11665;SDS011;5889;51.350;6.708;2023-07-13T15:13:51;4.05;;;2.10;;
11665;SDS011;5889;51.350;6.708;2023-07-13T15:16:22;5.32;;;2.00;;
11665;SDS011;5889;51.350;6.708;2023-07-13T15:18:51;4.55;;;1.80;;